createdAt,value
2023-02-24T00:00:38.772Z,43.50
2023-02-24T00:03:16.654Z,41.90
2023-02-24T00:05:48.388Z,41.40
2023-02-24T00:08:16.461Z,44.70
2023-02-24T00:10:44.738Z,40.70
2023-02-24T00:13:12.698Z,39.30
2023-02-24T00:15:40.900Z,41.50
2023-02-24T00:18:09.866Z,42.40
2023-02-24T00:20:37.957Z,42.60
2023-02-24T00:23:05.909Z,40.90
2023-02-24T00:25:33.973Z,41.70
2023-02-24T00:28:02.587Z,42.90
2023-02-24T00:30:33.328Z,38.10
2023-02-24T00:33:02.797Z,41.70
2023-02-24T00:35:32.557Z,43.30
2023-02-24T00:38:01.018Z,43.30
2023-02-24T00:40:30.969Z,43.90
2023-02-24T00:43:00.834Z,43.00
2023-02-24T00:45:31.166Z,39.50
2023-02-24T00:47:59.452Z,41.40
2023-02-24T00:50:27.609Z,39.50
2023-02-24T00:52:55.770Z,41.00
2023-02-24T00:55:24.048Z,45.00
2023-02-24T00:57:52.117Z,47.20
2023-02-24T01:00:20.834Z,45.90
2023-02-24T01:02:49.087Z,42.50
2023-02-24T01:05:17.163Z,45.60
2023-02-24T01:07:45.123Z,46.30
2023-02-24T01:10:13.190Z,46.50
2023-02-24T01:12:50.270Z,46.40
2023-02-24T01:15:21.376Z,42.70
2023-02-24T01:17:49.492Z,43.60
2023-02-24T01:20:19.152Z,43.50
2023-02-24T01:22:50.358Z,39.60
2023-02-24T01:25:20.751Z,40.20
2023-02-24T01:27:49.186Z,39.10
2023-02-24T01:30:18.531Z,37.80
2023-02-24T01:32:47.738Z,36.90
2023-02-24T01:35:16.481Z,39.20
2023-02-24T01:37:45.822Z,38.60
2023-02-24T01:40:20.954Z,38.20
2023-02-24T01:42:49.971Z,43.10
2023-02-24T01:45:36.868Z,39.70
2023-02-24T01:48:08.550Z,41.40
2023-02-24T01:50:38.738Z,38.20
2023-02-24T01:53:08.649Z,40.50
2023-02-24T01:55:43.651Z,37.80
2023-02-24T01:58:22.548Z,35.90
2023-02-24T02:00:51.942Z,36.00
2023-02-24T02:03:35.663Z,35.20
2023-02-24T02:06:09.270Z,36.40
2023-02-24T02:08:42.869Z,36.40
2023-02-24T02:11:14.933Z,42.00
2023-02-24T02:13:45.882Z,37.30
2023-02-24T02:16:28.236Z,37.80
2023-02-24T02:19:23.035Z,39.00
2023-02-24T02:22:09.782Z,36.50
2023-02-24T02:25:12.591Z,35.50
2023-02-24T02:28:20.062Z,35.50
2023-02-24T02:31:16.344Z,34.50
2023-02-24T02:33:44.576Z,41.70
2023-02-24T02:36:32.016Z,36.00
2023-02-24T02:39:06.223Z,38.40
2023-02-24T02:41:51.201Z,40.70
2023-02-24T02:44:19.153Z,41.30
2023-02-24T02:47:00.739Z,37.50
2023-02-24T02:49:42.389Z,38.80
2023-02-24T02:52:18.068Z,40.60
2023-02-24T02:54:57.810Z,34.00
2023-02-24T02:57:31.733Z,38.40
2023-02-24T03:00:12.451Z,37.90
2023-02-24T03:02:47.319Z,36.50
2023-02-24T03:05:20.378Z,38.10
2023-02-24T03:07:55.026Z,38.50
2023-02-24T03:10:27.855Z,41.30
2023-02-24T03:12:59.881Z,41.10
2023-02-24T03:15:33.742Z,38.90
2023-02-24T03:18:10.682Z,37.70
2023-02-24T03:20:44.156Z,36.90
2023-02-24T03:23:16.961Z,42.50
2023-02-24T03:26:06.410Z,36.10
2023-02-24T03:28:37.620Z,45.00
2023-02-24T03:31:19.290Z,38.20
2023-02-24T03:34:16.195Z,37.80
2023-02-24T03:39:12.948Z,38.70
2023-02-24T03:41:58.121Z,43.50
2023-02-24T03:44:29.064Z,38.10
2023-02-24T03:46:57.130Z,36.20
2023-02-24T03:49:25.630Z,39.90
2023-02-24T03:52:09.062Z,37.60
2023-02-24T03:54:59.478Z,38.70
2023-02-24T03:57:28.124Z,43.90
2023-02-24T03:59:58.043Z,42.10
2023-02-24T04:02:33.121Z,47.20
2023-02-24T04:05:37.908Z,37.70
2023-02-24T04:08:09.354Z,46.80
2023-02-24T04:10:58.723Z,44.00
2023-02-24T04:13:43.708Z,40.90
2023-02-24T04:16:18.822Z,41.10
2023-02-24T04:18:51.922Z,44.80
2023-02-24T04:21:23.252Z,38.90
2023-02-24T04:23:51.742Z,38.30
2023-02-24T04:26:20.962Z,44.10
2023-02-24T04:28:49.112Z,45.00
2023-02-24T04:31:21.888Z,45.60
2023-02-24T04:33:53.590Z,45.50
2023-02-24T04:36:27.544Z,50.10
2023-02-24T04:38:55.845Z,40.90
2023-02-24T04:41:24.828Z,43.00
2023-02-24T04:43:52.811Z,45.50
2023-02-24T04:46:20.917Z,45.80
2023-02-24T04:48:51.704Z,46.60
2023-02-24T04:51:21.294Z,41.00
2023-02-24T04:53:50.212Z,43.70
2023-02-24T04:56:19.018Z,44.60
2023-02-24T04:58:47.062Z,45.60
2023-02-24T05:01:15.383Z,43.10
2023-02-24T05:03:43.613Z,45.00
2023-02-24T05:06:16.209Z,43.50
2023-02-24T05:08:45.389Z,42.70
2023-02-24T05:11:19.274Z,45.60
2023-02-24T05:13:47.889Z,43.60
2023-02-24T05:16:18.417Z,44.80
2023-02-24T05:18:46.920Z,41.40
2023-02-24T05:21:36.171Z,46.40
2023-02-24T05:24:07.130Z,46.30
2023-02-24T05:26:37.738Z,48.10
2023-02-24T05:29:07.737Z,49.00
2023-02-24T05:31:37.449Z,47.20
2023-02-24T05:34:08.333Z,46.60
2023-02-24T05:36:41.016Z,46.40
2023-02-24T05:39:12.902Z,46.80
2023-02-24T05:41:43.582Z,44.20
2023-02-24T05:44:22.806Z,45.00
2023-02-24T05:46:58.998Z,47.50
2023-02-24T05:49:33.884Z,46.00
2023-02-24T05:52:08.199Z,48.50
2023-02-24T05:54:45.327Z,45.70
2023-02-24T05:57:17.504Z,49.20
2023-02-24T05:59:46.135Z,48.00
2023-02-24T06:02:16.394Z,44.90
2023-02-24T06:04:51.424Z,43.30
2023-02-24T06:07:27.112Z,46.20
2023-02-24T06:09:57.573Z,47.10
2023-02-24T06:12:32.127Z,45.40
2023-02-24T06:15:01.153Z,46.10
2023-02-24T06:17:29.762Z,46.60
2023-02-24T06:19:58.150Z,45.20
2023-02-24T06:22:27.089Z,44.20
2023-02-24T06:24:57.363Z,46.00
2023-02-24T06:27:26.374Z,46.20
2023-02-24T06:29:55.449Z,48.00
2023-02-24T06:32:26.265Z,45.10
2023-02-24T06:34:55.521Z,42.70
2023-02-24T06:37:24.925Z,46.20
2023-02-24T06:39:53.062Z,45.40
2023-02-24T06:42:21.138Z,44.40
2023-02-24T06:44:50.706Z,41.60
2023-02-24T06:47:18.713Z,43.60
2023-02-24T06:49:48.127Z,43.20
2023-02-24T06:52:19.343Z,43.50
2023-02-24T06:54:49.806Z,42.70
2023-02-24T06:57:18.683Z,43.90
2023-02-24T06:59:49.152Z,42.90
2023-02-24T07:02:17.865Z,42.20
2023-02-24T07:04:46.065Z,43.50
2023-02-24T07:07:17.724Z,42.60
2023-02-24T07:09:45.896Z,40.40
2023-02-24T07:12:15.735Z,43.80
2023-02-24T07:14:44.208Z,39.90
2023-02-24T07:17:14.909Z,39.30
2023-02-24T07:19:44.318Z,39.20
2023-02-24T07:22:14.866Z,39.40
2023-02-24T07:24:46.492Z,36.10
2023-02-24T07:27:23.001Z,39.60
2023-02-24T07:29:53.226Z,35.20
2023-02-24T07:32:22.909Z,39.70
2023-02-24T07:34:51.279Z,35.90
2023-02-24T07:37:20.831Z,35.30
2023-02-24T07:39:48.859Z,37.00
2023-02-24T07:42:16.940Z,36.20
2023-02-24T07:44:46.977Z,35.50
2023-02-24T07:47:16.332Z,34.60
2023-02-24T07:49:45.744Z,37.70
2023-02-24T07:52:14.014Z,34.40
2023-02-24T07:54:41.995Z,34.50
2023-02-24T07:57:14.246Z,34.90
2023-02-24T07:59:45.810Z,33.20
2023-02-24T08:02:14.180Z,31.40
2023-02-24T08:04:50.372Z,32.60
2023-02-24T08:07:25.240Z,34.20
2023-02-24T08:10:13.809Z,32.70
2023-02-24T08:12:43.047Z,31.40
2023-02-24T08:15:18.621Z,33.50
2023-02-24T08:17:47.768Z,34.00
2023-02-24T08:20:16.147Z,33.10
2023-02-24T08:22:52.299Z,31.30
2023-02-24T08:25:24.788Z,32.00
2023-02-24T08:28:07.498Z,29.30
2023-02-24T08:30:40.900Z,29.90
2023-02-24T08:33:20.978Z,29.80
2023-02-24T08:36:01.322Z,29.90
2023-02-24T08:38:45.146Z,28.80
2023-02-24T08:41:18.417Z,28.50
2023-02-24T08:43:48.460Z,29.10
2023-02-24T08:46:21.350Z,25.80
2023-02-24T08:48:55.769Z,29.20
2023-02-24T08:51:28.946Z,27.70
2023-02-24T08:54:00.891Z,26.40
2023-02-24T08:56:34.570Z,28.20
2023-02-24T08:59:06.502Z,28.10
2023-02-24T09:01:39.942Z,29.40
2023-02-24T09:04:11.649Z,26.60
2023-02-24T09:06:44.590Z,25.50
2023-02-24T09:09:17.679Z,25.50
2023-02-24T09:11:48.477Z,25.60
2023-02-24T09:14:28.948Z,25.10
2023-02-24T09:17:11.939Z,23.00
2023-02-24T09:20:01.830Z,25.00
2023-02-24T09:30:08.333Z,23.10
2023-02-24T09:32:36.565Z,22.50
2023-02-24T09:35:05.405Z,23.40
2023-02-24T09:37:33.354Z,21.80
2023-02-24T09:40:33.589Z,24.70
2023-02-24T09:43:11.319Z,21.70
2023-02-24T09:45:41.112Z,23.00
2023-02-24T09:48:21.348Z,22.20
2023-02-24T09:51:05.201Z,22.70
2023-02-24T09:53:41.679Z,23.60
2023-02-24T09:56:37.428Z,22.20
2023-02-24T09:59:10.539Z,21.70
2023-02-24T10:02:10.338Z,21.50
2023-02-24T10:05:07.437Z,22.40
2023-02-24T10:10:28.387Z,21.50
2023-02-24T10:13:30.627Z,20.30
2023-02-24T10:16:13.204Z,19.20
2023-02-24T10:19:12.034Z,20.30
2023-02-24T10:22:00.573Z,20.90
2023-02-24T10:25:01.596Z,19.40
2023-02-24T10:27:41.450Z,19.30
2023-02-24T10:30:41.216Z,20.10
2023-02-24T10:33:20.716Z,18.90
2023-02-24T10:35:50.432Z,19.20
2023-02-24T10:38:18.428Z,21.20
2023-02-24T10:40:56.897Z,19.60
2023-02-24T10:43:30.394Z,20.90
2023-02-24T10:46:06.710Z,20.50
2023-02-24T10:48:42.582Z,19.60
2023-02-24T10:51:30.576Z,19.10
2023-02-24T10:54:31.346Z,18.80
2023-02-24T10:57:38.313Z,18.00
2023-02-24T11:00:18.563Z,16.70
2023-02-24T11:03:10.790Z,20.20
2023-02-24T11:06:04.894Z,17.90
2023-02-24T11:08:44.323Z,15.90
2023-02-24T11:11:26.193Z,14.70
2023-02-24T11:14:14.438Z,12.20
2023-02-24T11:17:12.281Z,10.90
2023-02-24T11:19:56.462Z,12.40
2023-02-24T11:22:32.431Z,11.80
2023-02-24T11:25:07.825Z,9.10
2023-02-24T11:27:36.341Z,8.50
2023-02-24T11:30:15.163Z,8.40
2023-02-24T11:32:49.968Z,7.00
2023-02-24T11:35:37.313Z,6.80
2023-02-24T11:38:17.829Z,8.60
2023-02-24T11:40:53.652Z,7.80
2023-02-24T11:43:28.303Z,7.60
2023-02-24T11:46:07.403Z,8.20
2023-02-24T11:48:38.322Z,8.10
2023-02-24T11:51:18.597Z,8.20
2023-02-24T11:54:00.700Z,7.30
2023-02-24T11:56:38.785Z,8.30
2023-02-24T11:59:25.377Z,8.10
2023-02-24T12:02:06.362Z,7.20
2023-02-24T12:04:54.915Z,6.80
2023-02-24T12:07:30.007Z,7.90
2023-02-24T12:10:17.366Z,5.90
2023-02-24T12:13:07.055Z,7.50
2023-02-24T12:15:48.892Z,7.00
2023-02-24T12:18:34.283Z,5.70
2023-02-24T12:21:19.426Z,5.90
2023-02-24T12:23:51.005Z,6.40
2023-02-24T12:26:55.870Z,5.30
2023-02-24T12:29:42.576Z,6.70
2023-02-24T12:32:25.344Z,6.10
2023-02-24T12:35:21.870Z,6.80
2023-02-24T12:40:40.416Z,6.00
2023-02-24T12:43:39.915Z,5.60
2023-02-24T12:46:27.137Z,5.40
2023-02-24T12:49:13.653Z,6.80
2023-02-24T12:54:30.074Z,6.50
2023-02-24T12:57:04.318Z,7.40
2023-02-24T12:59:38.619Z,8.00
2023-02-24T13:02:19.773Z,6.60
2023-02-24T13:05:16.251Z,6.40
2023-02-24T13:07:53.388Z,7.70
2023-02-24T13:10:31.191Z,10.80
2023-02-24T13:13:30.489Z,8.40
2023-02-24T13:16:02.960Z,9.60
2023-02-24T13:18:36.419Z,9.70
2023-02-24T13:21:24.842Z,10.00
2023-02-24T13:23:59.999Z,17.40
2023-02-24T13:26:31.016Z,10.50
2023-02-24T13:29:01.111Z,8.50
2023-02-24T13:31:41.771Z,8.30
2023-02-24T13:34:22.233Z,9.60
2023-02-24T13:36:51.126Z,8.70
2023-02-24T13:39:33.716Z,11.40
2023-02-24T13:42:22.993Z,9.00
2023-02-24T13:45:09.513Z,10.50
2023-02-24T13:50:05.761Z,114.60
2023-02-24T13:52:36.798Z,23.90
2023-02-24T13:55:20.434Z,13.00
2023-02-24T13:58:10.210Z,11.10
2023-02-24T14:00:59.195Z,13.30
2023-02-24T14:03:29.393Z,12.80
2023-02-24T14:05:59.445Z,9.70
2023-02-24T14:08:54.464Z,11.30
2023-02-24T14:11:28.571Z,11.60
2023-02-24T14:13:57.732Z,11.50
2023-02-24T14:16:32.852Z,14.50
2023-02-24T14:19:02.800Z,13.40
2023-02-24T14:21:33.832Z,12.00
2023-02-24T14:24:09.874Z,12.70
2023-02-24T14:26:44.578Z,13.00
2023-02-24T14:29:17.871Z,12.40
2023-02-24T14:32:05.378Z,12.40
2023-02-24T14:34:34.950Z,12.90
2023-02-24T14:37:04.259Z,11.80
2023-02-24T14:39:34.434Z,13.30
2023-02-24T14:42:09.839Z,12.50
2023-02-24T14:45:16.484Z,14.10
2023-02-24T14:47:44.639Z,13.60
2023-02-24T14:50:24.484Z,14.60
2023-02-24T14:53:10.072Z,14.00
2023-02-24T14:55:42.264Z,12.50
2023-02-24T14:58:52.519Z,14.90
2023-02-24T15:01:30.871Z,16.00
2023-02-24T15:04:10.470Z,16.00
2023-02-24T15:06:43.029Z,16.80
2023-02-24T15:09:19.344Z,17.90
2023-02-24T15:11:48.300Z,16.40
2023-02-24T15:14:32.729Z,13.60
2023-02-24T15:17:10.678Z,16.10
2023-02-24T15:19:49.366Z,15.60
2023-02-24T15:22:22.160Z,16.00
2023-02-24T15:24:52.160Z,14.60
2023-02-24T15:27:23.829Z,15.50
2023-02-24T15:30:27.512Z,14.10
2023-02-24T15:33:06.029Z,16.10
2023-02-24T15:35:39.317Z,15.50
2023-02-24T15:38:07.502Z,14.60
2023-02-24T15:40:35.972Z,14.40
2023-02-24T15:43:12.074Z,15.30
2023-02-24T15:45:40.416Z,15.10
2023-02-24T15:48:23.278Z,15.40
2023-02-24T15:50:51.317Z,15.60
2023-02-24T15:53:19.271Z,18.00
2023-02-24T15:55:47.341Z,16.00
2023-02-24T15:58:22.211Z,17.30
2023-02-24T16:00:52.671Z,18.50
2023-02-24T16:03:20.977Z,18.20
2023-02-24T16:05:48.980Z,16.00
2023-02-24T16:08:20.064Z,18.10
2023-02-24T16:10:50.579Z,16.30
2023-02-24T16:13:22.981Z,18.30
2023-02-24T16:15:51.888Z,18.90
2023-02-24T16:18:23.472Z,16.90
2023-02-24T16:20:57.164Z,19.50
2023-02-24T16:23:26.517Z,18.90
2023-02-24T16:25:59.834Z,19.90
2023-02-24T16:28:28.139Z,19.10
2023-02-24T16:30:56.306Z,20.90
2023-02-24T16:33:24.504Z,17.10
2023-02-24T16:35:55.703Z,17.40
2023-02-24T16:38:27.961Z,19.10
2023-02-24T16:40:56.554Z,20.90
2023-02-24T16:43:25.034Z,17.20
2023-02-24T16:45:55.909Z,19.60
2023-02-24T16:48:26.497Z,17.80
2023-02-24T16:50:54.779Z,16.50
2023-02-24T16:53:24.172Z,18.40
2023-02-24T16:55:52.567Z,19.80
2023-02-24T16:58:20.723Z,16.70
2023-02-24T17:00:50.755Z,17.00
2023-02-24T17:03:25.618Z,16.20
2023-02-24T17:05:54.679Z,14.60
2023-02-24T17:08:23.251Z,17.20
2023-02-24T17:10:52.014Z,17.00
2023-02-24T17:13:22.058Z,24.70
2023-02-24T17:15:57.124Z,23.80
2023-02-24T17:18:26.505Z,22.20
2023-02-24T17:20:54.979Z,23.40
2023-02-24T17:23:23.690Z,32.00
2023-02-24T17:25:58.646Z,26.30
2023-02-24T17:28:27.494Z,21.90
2023-02-24T17:30:55.631Z,25.50
2023-02-24T17:33:23.875Z,23.10
2023-02-24T17:35:52.010Z,23.70
2023-02-24T17:38:23.314Z,22.10
2023-02-24T17:40:51.361Z,27.40
2023-02-24T17:43:19.559Z,20.40
2023-02-24T17:45:48.077Z,24.50
2023-02-24T17:48:16.239Z,23.00
2023-02-24T17:50:45.919Z,21.90
2023-02-24T17:53:14.951Z,21.90
2023-02-24T17:56:00.954Z,22.80
2023-02-24T17:58:31.173Z,70.40
2023-02-24T18:01:02.116Z,101.90
2023-02-24T18:03:32.196Z,32.70
2023-02-24T18:06:07.027Z,26.60
2023-02-24T18:08:37.678Z,23.40
2023-02-24T18:11:07.280Z,57.00
2023-02-24T18:13:35.720Z,34.90
2023-02-24T18:16:09.269Z,26.70
2023-02-24T18:18:37.743Z,32.00
2023-02-24T18:21:07.102Z,35.30
2023-02-24T18:23:38.331Z,28.50
2023-02-24T18:26:08.203Z,43.70
2023-02-24T18:28:36.916Z,56.80
2023-02-24T18:31:14.049Z,32.00
2023-02-24T18:33:42.960Z,34.10
2023-02-24T18:36:12.068Z,45.50
2023-02-24T18:38:40.556Z,47.00
2023-02-24T18:41:12.476Z,44.70
2023-02-24T18:43:40.681Z,28.50
2023-02-24T18:46:13.419Z,34.00
2023-02-24T18:48:44.884Z,32.10
2023-02-24T18:51:18.844Z,23.20
2023-02-24T18:53:47.523Z,23.50
2023-02-24T18:56:18.494Z,20.60
2023-02-24T18:58:47.872Z,21.10
2023-02-24T19:01:20.612Z,19.30
2023-02-24T19:03:50.785Z,17.90
2023-02-24T19:06:21.419Z,18.80
2023-02-24T19:08:57.489Z,16.90
2023-02-24T19:11:26.312Z,15.90
2023-02-24T19:13:55.629Z,17.50
2023-02-24T19:16:23.943Z,19.00
2023-02-24T19:18:56.301Z,17.70
2023-02-24T19:21:27.466Z,17.40
2023-02-24T19:23:59.274Z,15.30
2023-02-24T19:26:28.474Z,16.00
2023-02-24T19:28:58.696Z,16.90
2023-02-24T19:31:29.668Z,14.90
2023-02-24T19:34:02.353Z,18.00
2023-02-24T19:36:32.933Z,15.50
2023-02-24T19:39:02.364Z,15.30
2023-02-24T19:41:31.442Z,13.50
2023-02-24T19:43:59.963Z,14.40
2023-02-24T19:46:35.342Z,15.00
2023-02-24T19:49:06.648Z,13.60
2023-02-24T19:51:34.592Z,16.30
2023-02-24T19:54:05.449Z,17.40
2023-02-24T19:56:36.269Z,15.20
2023-02-24T19:59:06.985Z,16.00
2023-02-24T20:01:35.391Z,17.20
2023-02-24T20:04:04.692Z,18.50
2023-02-24T20:06:38.985Z,20.00
2023-02-24T20:09:09.098Z,22.70
2023-02-24T20:11:39.182Z,20.20
2023-02-24T20:14:09.538Z,22.60
2023-02-24T20:16:39.604Z,17.40
2023-02-24T20:19:09.498Z,31.60
2023-02-24T20:21:38.738Z,35.40
2023-02-24T20:24:13.833Z,33.50
2023-02-24T20:26:47.195Z,30.40
2023-02-24T20:29:18.184Z,37.20
2023-02-24T20:31:47.871Z,33.10
2023-02-24T20:34:16.880Z,37.60
2023-02-24T20:36:45.437Z,42.70
2023-02-24T20:39:13.521Z,42.80
2023-02-24T20:41:42.190Z,42.10
2023-02-24T20:44:11.344Z,38.80
2023-02-24T20:46:39.586Z,39.40
2023-02-24T20:49:10.805Z,29.70
2023-02-24T20:51:39.005Z,30.80
2023-02-24T21:01:41.805Z,24.20
2023-02-24T21:04:12.757Z,28.90
2023-02-24T21:06:41.334Z,28.70
2023-02-24T21:09:11.995Z,33.80
2023-02-24T21:11:40.027Z,28.20
2023-02-24T21:14:08.196Z,29.00
2023-02-24T21:16:36.193Z,28.00
2023-02-24T21:19:04.441Z,26.00
2023-02-24T21:21:33.226Z,27.70
2023-02-24T21:24:01.214Z,26.50
2023-02-24T21:26:29.376Z,29.20
2023-02-24T21:28:58.809Z,30.10
2023-02-24T21:31:28.156Z,30.50
2023-02-24T21:33:56.881Z,39.90
2023-02-24T21:36:26.345Z,32.70
2023-02-24T21:38:55.273Z,34.90
2023-02-24T21:41:24.015Z,29.40
2023-02-24T21:43:55.202Z,31.60
2023-02-24T21:46:28.563Z,33.60
2023-02-24T21:48:58.774Z,36.80
2023-02-24T21:51:29.273Z,33.90
2023-02-24T21:53:57.957Z,39.30
2023-02-24T21:56:28.560Z,38.40
2023-02-24T21:59:01.879Z,37.80
2023-02-24T22:01:29.866Z,37.50
2023-02-24T22:04:00.040Z,40.10
2023-02-24T22:06:31.614Z,40.40
2023-02-24T22:09:02.423Z,36.60
2023-02-24T22:11:33.002Z,44.50
2023-02-24T22:14:01.833Z,46.50
2023-02-24T22:16:30.101Z,43.80
2023-02-24T22:18:58.286Z,45.80
2023-02-24T22:21:29.162Z,45.90
2023-02-24T22:24:00.228Z,44.40
2023-02-24T22:26:30.185Z,41.70
2023-02-24T22:28:59.271Z,48.10
2023-02-24T22:31:30.275Z,48.10
2023-02-24T22:33:59.045Z,48.10
2023-02-24T22:36:29.839Z,42.50
2023-02-24T22:38:59.263Z,40.50
2023-02-24T22:41:31.410Z,41.30
2023-02-24T22:44:00.622Z,43.60
2023-02-24T22:46:34.832Z,39.20
2023-02-24T22:49:03.109Z,39.20
2023-02-24T22:51:31.476Z,36.50
2023-02-24T22:53:59.547Z,38.80
2023-02-24T22:56:29.474Z,40.70
2023-02-24T22:58:58.664Z,35.00
2023-02-24T23:01:29.619Z,33.00
2023-02-24T23:04:05.896Z,32.70
2023-02-24T23:06:36.129Z,29.20
2023-02-24T23:09:05.885Z,31.30
2023-02-24T23:11:38.084Z,24.70
2023-02-24T23:14:10.200Z,26.90
2023-02-24T23:16:39.061Z,24.00
2023-02-24T23:19:12.200Z,18.20
2023-02-24T23:21:42.404Z,22.90
2023-02-24T23:24:11.764Z,23.40
2023-02-24T23:26:43.975Z,24.10
2023-02-24T23:29:15.233Z,22.80
2023-02-24T23:31:44.625Z,21.00
2023-02-24T23:34:13.452Z,20.80
2023-02-24T23:36:44.371Z,24.20
2023-02-24T23:39:14.930Z,28.00
2023-02-24T23:41:43.376Z,25.20
2023-02-24T23:44:12.919Z,23.10
2023-02-24T23:46:42.027Z,20.90
2023-02-24T23:49:10.187Z,19.50
2023-02-24T23:51:48.019Z,20.70
2023-02-24T23:54:18.515Z,21.40
2023-02-24T23:56:46.790Z,19.80
2023-02-24T23:59:15.451Z,21.20
